Time;durP1;ratioP1;P1;durP2;ratioP2;P2;SDS_P1;SDS_P2;PMS_P1;PMS_P2;Temp;Humidity;BMP_temperature;BMP_pressure;BME280_temperature;BME280_humidity;BME280_pressure;Samples;Min_cycle;Max_cycle;Signal;HPM_P1;HPM_P2
2024/03/06 00:01:53;;;;;;;33.92;23.67;;;;;;;;;;5093913;28;20420;-58
2024/03/06 00:04:20;;;;;;;82.05;28.52;;;;;;;;;;5094355;28;20053;-59
2024/03/06 00:06:46;;;;;;;30.55;22.75;;;;;;;;;;5094706;28;20059;-58
2024/03/06 00:09:13;;;;;;;28.88;21.48;;;;;;;;;;5094464;28;20052;-58
2024/03/06 00:11:42;;;;;;;28.70;21.27;;;;;;;;;;5088271;28;20041;-58
2024/03/06 00:14:09;;;;;;;53.80;28.70;;;;;;;;;;5093088;28;20159;-58
2024/03/06 00:16:35;;;;;;;31.33;23.23;;;;;;;;;;5093608;28;20512;-58
2024/03/06 00:19:02;;;;;;;27.50;20.05;;;;;;;;;;5093766;28;20055;-58
2024/03/06 00:21:29;;;;;;;28.85;21.40;;;;;;;;;;5094242;28;20047;-59
2024/03/06 00:23:56;;;;;;;38.55;24.40;;;;;;;;;;5094473;28;20059;-58
2024/03/06 00:26:23;;;;;;;33.50;24.13;;;;;;;;;;5094488;28;20052;-59
2024/03/06 00:28:51;;;;;;;36.45;23.60;;;;;;;;;;5091075;28;20105;-59
2024/03/06 00:31:18;;;;;;;70.70;26.10;;;;;;;;;;5092930;28;20059;-58
2024/03/06 00:33:45;;;;;;;74.82;26.67;;;;;;;;;;5093640;28;20401;-59
2024/03/06 00:36:12;;;;;;;77.70;26.25;;;;;;;;;;5093761;28;20052;-58
2024/03/06 00:38:38;;;;;;;60.30;25.88;;;;;;;;;;5093403;28;20416;-59
2024/03/06 00:41:05;;;;;;;46.35;24.25;;;;;;;;;;5093860;28;20052;-59
2024/03/06 00:43:32;;;;;;;42.03;23.77;;;;;;;;;;5090809;28;20048;-59
2024/03/06 00:46:00;;;;;;;35.08;23.00;;;;;;;;;;5093781;28;20052;-59
2024/03/06 00:48:27;;;;;;;37.97;22.15;;;;;;;;;;5093755;28;20055;-59
2024/03/06 00:50:54;;;;;;;31.27;22.70;;;;;;;;;;5093634;28;20051;-59
2024/03/06 00:53:21;;;;;;;46.30;24.13;;;;;;;;;;5093464;28;20059;-59
2024/03/06 00:55:47;;;;;;;41.65;22.13;;;;;;;;;;5093730;28;20048;-58
2024/03/06 00:58:14;;;;;;;37.85;23.40;;;;;;;;;;5089016;28;20055;-58
2024/03/06 01:00:41;;;;;;;45.08;23.83;;;;;;;;;;5093465;28;20059;-58
2024/03/06 01:03:09;;;;;;;53.17;24.88;;;;;;;;;;5093058;28;20044;-58
2024/03/06 01:05:36;;;;;;;42.58;24.83;;;;;;;;;;5093283;28;20477;-58
2024/03/06 01:08:03;;;;;;;45.55;25.02;;;;;;;;;;5093505;28;20477;-58
2024/03/06 01:10:29;;;;;;;42.60;24.85;;;;;;;;;;5093190;28;20134;-57
2024/03/06 01:12:57;;;;;;;45.88;24.48;;;;;;;;;;5092017;28;20231;-58
2024/03/06 01:15:24;;;;;;;44.95;24.05;;;;;;;;;;5092269;28;20047;-58
2024/03/06 01:17:50;;;;;;;56.38;24.13;;;;;;;;;;5092624;28;20485;-58
2024/03/06 01:20:19;;;;;;;84.50;28.65;;;;;;;;;;5093040;28;20400;-58
2024/03/06 01:22:47;;;;;;;45.90;23.65;;;;;;;;;;5092273;28;20044;-59
2024/03/06 01:25:13;;;;;;;36.85;24.52;;;;;;;;;;5092707;28;20059;-58
2024/03/06 01:27:40;;;;;;;37.20;22.92;;;;;;;;;;5091700;28;20048;-59
2024/03/06 01:30:07;;;;;;;33.08;22.38;;;;;;;;;;5092354;28;20412;-58
2024/03/06 01:32:34;;;;;;;33.10;22.63;;;;;;;;;;5092504;28;20074;-58
2024/03/06 01:35:01;;;;;;;30.92;22.25;;;;;;;;;;5092889;28;20056;-58
2024/03/06 01:37:29;;;;;;;30.60;22.25;;;;;;;;;;5092608;28;20071;-58
2024/03/06 01:39:56;;;;;;;27.52;20.73;;;;;;;;;;5090409;28;20071;-58
2024/03/06 01:42:23;;;;;;;31.27;22.45;;;;;;;;;;5092007;28;20055;-58
2024/03/06 01:44:50;;;;;;;36.42;24.30;;;;;;;;;;5092489;28;20465;-58
2024/03/06 01:47:17;;;;;;;33.30;23.55;;;;;;;;;;5092645;28;20048;-58
2024/03/06 01:49:44;;;;;;;34.67;22.65;;;;;;;;;;5092762;28;20052;-58
2024/03/06 01:52:12;;;;;;;43.17;25.25;;;;;;;;;;5092678;28;20052;-58
2024/03/06 01:54:40;;;;;;;41.53;26.48;;;;;;;;;;5092497;28;20384;-58
2024/03/06 01:57:08;;;;;;;44.22;24.98;;;;;;;;;;5091628;28;20420;-58
2024/03/06 01:59:35;;;;;;;39.10;26.40;;;;;;;;;;5091140;28;20055;-58
2024/03/06 02:02:02;;;;;;;53.30;25.00;;;;;;;;;;5090918;28;20289;-58
2024/03/06 02:04:30;;;;;;;137.60;34.03;;;;;;;;;;5091668;28;20059;-58
2024/03/06 02:06:57;;;;;;;388.05;56.42;;;;;;;;;;5091207;28;20113;-59
2024/03/06 02:09:24;;;;;;;76.80;28.23;;;;;;;;;;5092030;28;20051;-58
2024/03/06 02:11:52;;;;;;;52.08;28.52;;;;;;;;;;5091570;28;20048;-59
2024/03/06 02:14:19;;;;;;;73.32;28.08;;;;;;;;;;5091416;28;20064;-59
2024/03/06 02:16:46;;;;;;;52.63;26.27;;;;;;;;;;5091086;28;20047;-58
2024/03/06 02:19:13;;;;;;;52.78;27.10;;;;;;;;;;5091029;28;20052;-57
2024/03/06 02:21:42;;;;;;;60.33;29.40;;;;;;;;;;5092633;28;20063;-58
2024/03/06 02:24:11;;;;;;;64.13;28.33;;;;;;;;;;5092031;28;20066;-58
2024/03/06 02:26:38;;;;;;;54.60;27.33;;;;;;;;;;5092047;28;20060;-58
2024/03/06 02:29:05;;;;;;;51.38;28.27;;;;;;;;;;5090931;28;20458;-58
2024/03/06 02:31:33;;;;;;;39.63;26.17;;;;;;;;;;5089790;28;20528;-58
2024/03/06 02:34:01;;;;;;;39.28;25.17;;;;;;;;;;5091210;28;20043;-58
2024/03/06 02:36:27;;;;;;;37.45;25.73;;;;;;;;;;5096290;28;20063;-58
2024/03/06 02:38:56;;;;;;;37.28;24.92;;;;;;;;;;5096438;28;20070;-59
2024/03/06 02:41:22;;;;;;;37.17;26.13;;;;;;;;;;5096148;28;20052;-58
2024/03/06 02:43:49;;;;;;;37.00;25.80;;;;;;;;;;5092757;28;20051;-58
2024/03/06 02:46:16;;;;;;;35.65;24.23;;;;;;;;;;5094778;28;20466;-58
2024/03/06 02:48:43;;;;;;;34.58;25.00;;;;;;;;;;5095044;28;20048;-58
2024/03/06 02:51:09;;;;;;;36.75;25.05;;;;;;;;;;5096112;28;20437;-59
2024/03/06 02:53:36;;;;;;;35.67;24.35;;;;;;;;;;5095948;28;20404;-59
2024/03/06 02:56:05;;;;;;;37.83;25.40;;;;;;;;;;5095829;28;20056;-58
2024/03/06 02:58:31;;;;;;;38.63;25.23;;;;;;;;;;5094498;28;20059;-58
2024/03/06 03:00:58;;;;;;;36.67;25.35;;;;;;;;;;5094943;28;20063;-58
2024/03/06 03:03:26;;;;;;;35.25;23.70;;;;;;;;;;5095860;28;20048;-59
2024/03/06 03:05:52;;;;;;;37.10;24.27;;;;;;;;;;5095865;28;20063;-58
2024/03/06 03:08:19;;;;;;;39.50;25.55;;;;;;;;;;5095724;28;20052;-58
2024/03/06 03:10:46;;;;;;;57.88;26.17;;;;;;;;;;5095587;28;20048;-58
2024/03/06 03:13:14;;;;;;;41.08;26.48;;;;;;;;;;5094036;28;20122;-58
2024/03/06 03:15:41;;;;;;;43.00;25.23;;;;;;;;;;5094727;28;20419;-58
2024/03/06 03:18:08;;;;;;;43.35;26.20;;;;;;;;;;5091831;28;20052;-57
2024/03/06 03:20:36;;;;;;;51.63;26.65;;;;;;;;;;5094523;28;20350;-58
2024/03/06 03:23:02;;;;;;;50.28;25.75;;;;;;;;;;5091879;28;20052;-59
2024/03/06 03:25:29;;;;;;;36.80;25.60;;;;;;;;;;5094805;28;20048;-58
2024/03/06 03:27:56;;;;;;;89.35;25.85;;;;;;;;;;5094442;28;20052;-58
2024/03/06 03:30:24;;;;;;;126.38;28.77;;;;;;;;;;5093602;28;20051;-58
2024/03/06 03:32:51;;;;;;;68.00;26.42;;;;;;;;;;5093135;28;20052;-58
2024/03/06 03:35:20;;;;;;;47.13;25.92;;;;;;;;;;5094773;28;20074;-58
2024/03/06 03:37:47;;;;;;;51.25;25.25;;;;;;;;;;5094954;28;20081;-58
2024/03/06 03:40:15;;;;;;;50.78;25.33;;;;;;;;;;5095095;28;20052;-58
2024/03/06 03:42:41;;;;;;;80.10;25.05;;;;;;;;;;5093701;28;20048;-58
2024/03/06 03:45:08;;;;;;;144.73;29.35;;;;;;;;;;5094081;28;20048;-59
2024/03/06 03:47:36;;;;;;;128.27;25.90;;;;;;;;;;5094153;28;20055;-58
2024/03/06 03:50:03;;;;;;;81.10;24.13;;;;;;;;;;5093879;28;20417;-59
2024/03/06 03:52:30;;;;;;;92.03;24.25;;;;;;;;;;5094569;28;20048;-58
2024/03/06 03:54:57;;;;;;;70.03;22.95;;;;;;;;;;5094858;28;20052;-58
2024/03/06 03:57:24;;;;;;;87.10;23.67;;;;;;;;;;5094243;28;20052;-57
2024/03/06 03:59:51;;;;;;;100.00;26.00;;;;;;;;;;5091399;28;20044;-58
2024/03/06 04:02:18;;;;;;;98.50;24.33;;;;;;;;;;5091234;28;20055;-58
2024/03/06 04:04:46;;;;;;;38.75;21.83;;;;;;;;;;5093970;28;20067;-58
2024/03/06 04:07:13;;;;;;;44.58;20.55;;;;;;;;;;5094440;28;20412;-58
2024/03/06 04:09:39;;;;;;;69.65;21.95;;;;;;;;;;5094206;28;20056;-58
2024/03/06 04:12:06;;;;;;;66.07;21.27;;;;;;;;;;5094058;28;20079;-58
2024/03/06 04:14:33;;;;;;;46.90;20.48;;;;;;;;;;5092480;28;20048;-58
2024/03/06 04:17:00;;;;;;;41.13;19.33;;;;;;;;;;5093614;28;20048;-58
2024/03/06 04:19:26;;;;;;;37.67;19.80;;;;;;;;;;5092892;28;20048;-58
2024/03/06 04:21:55;;;;;;;166.60;25.88;;;;;;;;;;5093263;28;20477;-59
2024/03/06 04:24:21;;;;;;;40.45;19.33;;;;;;;;;;5093423;28;20044;-58
2024/03/06 04:26:48;;;;;;;49.10;19.77;;;;;;;;;;5093817;28;20052;-58
2024/03/06 04:29:15;;;;;;;66.60;20.95;;;;;;;;;;5093437;28;20419;-58
2024/03/06 04:31:42;;;;;;;77.32;20.70;;;;;;;;;;5093899;28;20508;-58
2024/03/06 04:34:09;;;;;;;49.00;19.65;;;;;;;;;;5093667;28;20054;-58
2024/03/06 04:36:36;;;;;;;82.47;20.35;;;;;;;;;;5093736;28;20481;-58
2024/03/06 04:39:07;;;;;;;68.38;18.63;;;;;;;;;;5093400;28;20082;-59
2024/03/06 04:41:34;;;;;;;59.67;19.58;;;;;;;;;;5093810;28;20056;-59
2024/03/06 04:44:00;;;;;;;27.38;16.02;;;;;;;;;;5092940;28;20066;-58
2024/03/06 04:46:27;;;;;;;35.40;16.52;;;;;;;;;;5093887;28;20063;-58
2024/03/06 04:48:54;;;;;;;21.55;15.57;;;;;;;;;;5093859;28;20052;-58
2024/03/06 04:51:21;;;;;;;45.00;17.88;;;;;;;;;;5093828;28;20397;-58
2024/03/06 04:53:48;;;;;;;37.83;16.90;;;;;;;;;;5093766;28;20048;-58
2024/03/06 04:56:18;;;;;;;76.20;18.75;;;;;;;;;;5093759;28;20063;-58
2024/03/06 04:58:45;;;;;;;;;;;;;;;;;;5092234;28;20051;-58
2024/03/06 05:01:12;;;;;;;36.63;17.00;;;;;;;;;;5093754;28;20276;-58
2024/03/06 05:03:39;;;;;;;24.75;15.90;;;;;;;;;;5093565;28;20048;-58
2024/03/06 05:06:06;;;;;;;26.08;16.30;;;;;;;;;;5093275;28;20067;-58
2024/03/06 05:08:33;;;;;;;31.85;18.48;;;;;;;;;;5093713;28;20055;-59
2024/03/06 05:11:01;;;;;;;28.52;17.10;;;;;;;;;;5093375;28;20130;-58
2024/03/06 05:13:29;;;;;;;25.13;17.50;;;;;;;;;;5092110;28;20059;-58
2024/03/06 05:15:56;;;;;;;23.85;16.13;;;;;;;;;;5090184;28;20048;-58
2024/03/06 05:18:23;;;;;;;28.30;17.73;;;;;;;;;;5091914;28;20051;-59
2024/03/06 05:20:50;;;;;;;24.65;17.73;;;;;;;;;;5092309;28;20397;-59
2024/03/06 05:23:17;;;;;;;29.33;17.38;;;;;;;;;;5089286;28;20052;-58
2024/03/06 05:25:44;;;;;;;23.48;16.50;;;;;;;;;;5091827;28;20040;-59
2024/03/06 05:28:11;;;;;;;38.50;17.25;;;;;;;;;;5090726;28;20063;-58
2024/03/06 05:30:39;;;;;;;28.65;18.85;;;;;;;;;;5091449;28;20055;-59
2024/03/06 05:33:06;;;;;;;62.63;20.23;;;;;;;;;;5090882;28;20056;-59
2024/03/06 05:35:32;;;;;;;30.60;19.23;;;;;;;;;;5088931;28;20047;-58
2024/03/06 05:37:59;;;;;;;50.90;19.42;;;;;;;;;;5091002;28;20059;-58
2024/03/06 05:40:26;;;;;;;41.25;19.00;;;;;;;;;;5090703;28;20066;-59
2024/03/06 05:42:53;;;;;;;62.53;20.23;;;;;;;;;;5092220;28;20056;-58
2024/03/06 05:45:20;;;;;;;58.55;20.40;;;;;;;;;;5091163;28;20389;-58
2024/03/06 05:47:48;;;;;;;37.00;19.15;;;;;;;;;;5092456;28;20055;-59
2024/03/06 05:50:15;;;;;;;80.68;22.10;;;;;;;;;;5092691;28;20056;-59
2024/03/06 05:52:42;;;;;;;120.95;21.80;;;;;;;;;;5092582;28;20060;-58
2024/03/06 05:55:09;;;;;;;68.68;22.85;;;;;;;;;;5092558;28;20051;-59
2024/03/06 05:57:36;;;;;;;89.95;22.48;;;;;;;;;;5091219;28;20182;-58
2024/03/06 06:00:04;;;;;;;266.23;33.15;;;;;;;;;;5090314;28;20051;-59
2024/03/06 06:02:31;;;;;;;136.32;24.50;;;;;;;;;;5090994;28;20054;-59
2024/03/06 06:05:00;;;;;;;94.57;23.58;;;;;;;;;;5092593;28;20048;-59
2024/03/06 06:07:27;;;;;;;103.68;28.13;;;;;;;;;;5091192;28;20063;-58
2024/03/06 06:09:54;;;;;;;130.50;27.33;;;;;;;;;;5088888;28;20056;-58
2024/03/06 06:12:21;;;;;;;329.67;43.00;;;;;;;;;;5089796;28;20059;-58
2024/03/06 06:14:48;;;;;;;336.75;41.47;;;;;;;;;;5088863;28;20055;-58
2024/03/06 06:17:15;;;;;;;81.05;25.40;;;;;;;;;;5090115;28;20055;-58
2024/03/06 06:19:42;;;;;;;162.68;29.35;;;;;;;;;;5089732;28;20052;-58
2024/03/06 06:22:11;;;;;;;319.95;32.13;;;;;;;;;;5090798;28;20047;-58
2024/03/06 06:24:38;;;;;;;203.65;27.35;;;;;;;;;;5092195;28;20059;-58
2024/03/06 06:27:05;;;;;;;220.15;28.02;;;;;;;;;;5089823;28;20149;-58
2024/03/06 06:29:32;;;;;;;201.82;25.75;;;;;;;;;;5089423;28;20542;-57
2024/03/06 06:31:59;;;;;;;148.38;25.75;;;;;;;;;;5087685;28;20052;-59
2024/03/06 06:34:27;;;;;;;145.07;24.92;;;;;;;;;;5088251;28;20059;-58
2024/03/06 06:36:54;;;;;;;111.13;19.55;;;;;;;;;;5090093;28;20052;-58
2024/03/06 06:39:22;;;;;;;201.48;25.92;;;;;;;;;;5089907;28;20052;-58
2024/03/06 06:41:49;;;;;;;95.85;22.20;;;;;;;;;;5082831;28;20044;-58
2024/03/06 06:44:15;;;;;;;99.10;21.13;;;;;;;;;;5084590;28;20049;-58
2024/03/06 06:46:42;;;;;;;123.55;22.23;;;;;;;;;;5089441;28;20047;-58
2024/03/06 06:49:09;;;;;;;243.45;28.83;;;;;;;;;;5092017;28;20056;-58
2024/03/06 06:51:36;;;;;;;136.88;21.60;;;;;;;;;;5092095;28;20063;-58
2024/03/06 06:54:05;;;;;;;111.47;20.08;;;;;;;;;;5092412;28;20508;-58
2024/03/06 06:56:33;;;;;;;235.15;26.92;;;;;;;;;;5089651;28;20056;-58
2024/03/06 06:59:00;;;;;;;73.53;18.75;;;;;;;;;;5090014;28;20052;-58
2024/03/06 07:01:27;;;;;;;85.90;19.58;;;;;;;;;;5090234;28;20056;-58
2024/03/06 07:03:54;;;;;;;64.28;18.20;;;;;;;;;;5089021;28;20048;-58
2024/03/06 07:06:21;;;;;;;114.70;19.83;;;;;;;;;;5090168;28;20048;-58
2024/03/06 07:08:48;;;;;;;87.18;18.70;;;;;;;;;;5090828;28;20044;-58
2024/03/06 07:11:14;;;;;;;161.18;21.55;;;;;;;;;;5091636;28;20063;-59
2024/03/06 07:13:43;;;;;;;141.30;21.48;;;;;;;;;;5092004;28;20059;-59
2024/03/06 07:16:10;;;;;;;66.88;17.58;;;;;;;;;;5089982;28;20055;-58
2024/03/06 07:18:36;;;;;;;136.15;21.98;;;;;;;;;;5088745;28;20048;-58
2024/03/06 07:21:03;;;;;;;98.43;19.35;;;;;;;;;;5089107;28;20067;-58
2024/03/06 07:23:30;;;;;;;116.88;20.20;;;;;;;;;;5093716;28;20055;-59
2024/03/06 07:25:57;;;;;;;58.15;16.85;;;;;;;;;;5095162;28;20059;-59
2024/03/06 07:28:25;;;;;;;45.55;16.30;;;;;;;;;;5095853;28;20477;-58
2024/03/06 07:30:53;;;;;;;41.63;15.93;;;;;;;;;;5092999;28;20055;-60
2024/03/06 07:33:20;;;;;;;60.60;15.50;;;;;;;;;;5093222;28;20122;-60
2024/03/06 07:35:47;;;;;;;50.63;15.95;;;;;;;;;;5090054;28;20044;-61
2024/03/06 07:38:14;;;;;;;30.95;14.25;;;;;;;;;;5083535;28;20048;-60
2024/03/06 07:40:40;;;;;;;63.97;15.73;;;;;;;;;;5092395;28;20056;-60
2024/03/06 07:43:07;;;;;;;41.55;13.90;;;;;;;;;;5090582;28;20055;-61
2024/03/06 07:45:34;;;;;;;24.02;13.48;;;;;;;;;;5089960;28;20064;-61
2024/03/06 07:48:02;;;;;;;40.10;13.18;;;;;;;;;;5088541;28;20052;-61
2024/03/06 07:50:29;;;;;;;19.00;12.40;;;;;;;;;;5090863;28;20047;-61
2024/03/06 07:52:55;;;;;;;24.80;14.68;;;;;;;;;;5090347;28;20055;-62
2024/03/06 07:55:22;;;;;;;30.17;14.07;;;;;;;;;;5092630;28;20055;-61
2024/03/06 07:57:49;;;;;;;23.20;13.30;;;;;;;;;;5078985;28;20060;-62
2024/03/06 08:00:19;;;;;;;29.15;13.95;;;;;;;;;;5072601;28;20056;-61
2024/03/06 08:02:49;;;;;;;35.40;15.10;;;;;;;;;;5071847;28;20057;-62
2024/03/06 08:05:18;;;;;;;36.30;14.77;;;;;;;;;;5084214;28;20421;-62
2024/03/06 08:07:45;;;;;;;42.50;16.17;;;;;;;;;;5090883;28;20070;-62
2024/03/06 08:10:13;;;;;;;46.83;15.20;;;;;;;;;;5092280;28;20059;-61
2024/03/06 08:12:40;;;;;;;24.40;14.05;;;;;;;;;;5092178;28;20051;-62
2024/03/06 08:15:09;;;;;;;24.73;13.65;;;;;;;;;;5092170;28;20512;-62
2024/03/06 08:17:36;;;;;;;23.80;13.32;;;;;;;;;;5090642;28;20048;-62
2024/03/06 08:20:05;;;;;;;20.85;13.07;;;;;;;;;;5091919;28;20059;-62
2024/03/06 08:22:37;;;;;;;24.05;14.73;;;;;;;;;;5090397;28;20052;-62
2024/03/06 08:25:05;;;;;;;19.65;13.77;;;;;;;;;;5092250;28;20071;-62
2024/03/06 08:27:32;;;;;;;26.60;13.18;;;;;;;;;;5091942;28;20044;-62
2024/03/06 08:29:59;;;;;;;36.88;14.32;;;;;;;;;;5092281;28;20059;-62
2024/03/06 08:32:27;;;;;;;32.00;13.80;;;;;;;;;;5090694;28;20056;-62
2024/03/06 08:34:54;;;;;;;19.50;13.13;;;;;;;;;;5090070;28;20051;-62
2024/03/06 08:37:20;;;;;;;38.75;15.18;;;;;;;;;;5090381;28;20044;-62
2024/03/06 08:39:49;;;;;;;20.02;13.70;;;;;;;;;;5090006;28;20063;-61
2024/03/06 08:42:18;;;;;;;133.55;21.13;;;;;;;;;;5092080;28;20075;-62
2024/03/06 08:44:45;;;;;;;36.10;14.00;;;;;;;;;;5091711;28;20056;-62
2024/03/06 08:47:13;;;;;;;47.67;15.18;;;;;;;;;;5089607;28;20056;-63
2024/03/06 08:49:40;;;;;;;27.67;14.52;;;;;;;;;;5079257;28;20059;-62
2024/03/06 08:52:07;;;;;;;24.77;14.55;;;;;;;;;;5089786;28;20074;-63
2024/03/06 08:54:33;;;;;;;19.77;13.75;;;;;;;;;;5089437;28;20066;-63
2024/03/06 08:57:02;;;;;;;20.48;14.25;;;;;;;;;;5079228;28;20043;-62
2024/03/06 08:59:29;;;;;;;36.53;15.40;;;;;;;;;;5090330;28;20051;-62
2024/03/06 09:01:57;;;;;;;23.58;15.10;;;;;;;;;;5088413;28;20543;-63
2024/03/06 09:04:24;;;;;;;26.70;16.00;;;;;;;;;;5091011;28;20060;-63
2024/03/06 09:06:51;;;;;;;41.63;16.60;;;;;;;;;;5082072;28;20051;-62
2024/03/06 09:09:18;;;;;;;34.72;17.60;;;;;;;;;;5086747;28;20523;-62
2024/03/06 09:11:44;;;;;;;27.48;16.83;;;;;;;;;;5090120;28;20496;-62
2024/03/06 09:14:13;;;;;;;29.83;16.48;;;;;;;;;;5089781;28;20048;-63
2024/03/06 09:16:40;;;;;;;24.90;15.75;;;;;;;;;;5087642;28;20040;-63
2024/03/06 09:19:06;;;;;;;25.90;15.90;;;;;;;;;;5088265;28;20055;-63
2024/03/06 09:21:33;;;;;;;22.90;15.18;;;;;;;;;;5089688;28;20068;-62
2024/03/06 09:24:00;;;;;;;42.22;17.23;;;;;;;;;;5090016;28;20504;-62
2024/03/06 09:26:27;;;;;;;37.70;16.33;;;;;;;;;;5090217;28;20055;-62
2024/03/06 09:28:54;;;;;;;21.83;15.52;;;;;;;;;;5089691;28;20055;-62
2024/03/06 09:31:22;;;;;;;45.08;17.13;;;;;;;;;;5087414;28;20048;-62
2024/03/06 09:33:48;;;;;;;32.80;17.02;;;;;;;;;;5088912;28;20485;-62
2024/03/06 09:36:15;;;;;;;53.92;16.52;;;;;;;;;;5086876;28;20608;-62
2024/03/06 09:38:43;;;;;;;22.60;14.02;;;;;;;;;;5088125;28;20043;-62
2024/03/06 09:41:10;;;;;;;20.83;14.27;;;;;;;;;;5087671;28;20496;-63
2024/03/06 09:43:36;;;;;;;151.32;23.50;;;;;;;;;;5088064;28;20412;-61
2024/03/06 09:46:04;;;;;;;118.88;21.77;;;;;;;;;;5087642;28;20055;-62
2024/03/06 09:48:32;;;;;;;28.17;15.95;;;;;;;;;;5088267;28;20055;-62
2024/03/06 09:51:01;;;;;;;47.78;17.02;;;;;;;;;;5088554;28;20059;-63
2024/03/06 09:53:28;;;;;;;38.40;17.00;;;;;;;;;;5088988;28;20063;-63
2024/03/06 09:55:56;;;;;;;17.77;14.35;;;;;;;;;;5079807;28;20051;-62
2024/03/06 09:58:23;;;;;;;20.88;15.15;;;;;;;;;;5089194;28;20047;-63
2024/03/06 10:00:51;;;;;;;20.17;16.35;;;;;;;;;;5090039;28;20397;-62
2024/03/06 10:03:18;;;;;;;23.10;16.30;;;;;;;;;;5086269;28;20059;-60
2024/03/06 10:05:46;;;;;;;18.58;15.30;;;;;;;;;;5086922;28;20048;-62
2024/03/06 10:08:16;;;;;;;16.65;14.77;;;;;;;;;;5089512;28;20052;-62
2024/03/06 10:10:43;;;;;;;16.63;14.00;;;;;;;;;;5084322;28;20490;-60
2024/03/06 10:13:10;;;;;;;16.60;14.20;;;;;;;;;;5090514;28;20047;-63
2024/03/06 10:15:37;;;;;;;19.23;16.35;;;;;;;;;;5087668;28;20067;-63
2024/03/06 10:18:13;;;;;;;17.13;14.10;;;;;;;;;;5086151;28;20048;-63
2024/03/06 10:20:42;;;;;;;16.40;14.20;;;;;;;;;;5086066;28;20048;-63
2024/03/06 10:23:10;;;;;;;14.65;13.15;;;;;;;;;;5087668;28;20404;-61
2024/03/06 10:25:37;;;;;;;15.68;13.63;;;;;;;;;;5087840;28;20485;-62
2024/03/06 10:28:05;;;;;;;15.75;14.15;;;;;;;;;;5087323;28;20044;-62
2024/03/06 10:30:32;;;;;;;14.82;13.32;;;;;;;;;;5085837;28;20504;-61
2024/03/06 10:32:59;;;;;;;15.25;13.73;;;;;;;;;;5088761;28;20060;-61
2024/03/06 10:35:26;;;;;;;15.27;13.80;;;;;;;;;;5086402;28;20044;-62
2024/03/06 10:37:55;;;;;;;15.30;13.70;;;;;;;;;;5085731;28;20044;-62
2024/03/06 10:40:21;;;;;;;;;;;;;;;;;;5079593;28;20838;-62
2024/03/06 10:42:50;;;;;;;16.58;14.88;;;;;;;;;;5074036;28;20388;-61
2024/03/06 10:45:17;;;;;;;16.85;15.15;;;;;;;;;;5077622;28;20075;-62
2024/03/06 10:47:47;;;;;;;16.88;15.00;;;;;;;;;;5077262;28;20115;-61
2024/03/06 10:50:15;;;;;;;17.13;15.43;;;;;;;;;;5075922;28;20517;-61
2024/03/06 10:52:42;;;;;;;15.23;13.73;;;;;;;;;;5080787;28;20044;-60
2024/03/06 10:55:10;;;;;;;16.08;14.48;;;;;;;;;;5076039;28;20527;-62
2024/03/06 10:57:37;;;;;;;17.23;15.57;;;;;;;;;;5078434;28;20052;-63
2024/03/06 11:00:06;;;;;;;11.32;10.13;;;;;;;;;;5078254;28;20052;-62
2024/03/06 11:02:35;;;;;;;13.20;12.02;;;;;;;;;;5087225;28;20063;-61
2024/03/06 11:05:05;;;;;;;13.02;11.77;;;;;;;;;;5079676;28;20566;-62
2024/03/06 11:07:31;;;;;;;12.68;11.57;;;;;;;;;;5079539;28;20044;-63
2024/03/06 11:09:59;;;;;;;13.05;11.80;;;;;;;;;;5079953;28;20111;-64
2024/03/06 11:12:37;;;;;;;13.98;12.63;;;;;;;;;;5084263;28;20052;-61
2024/03/06 11:15:11;;;;;;;12.23;11.05;;;;;;;;;;5078733;28;20056;-63
2024/03/06 11:17:38;;;;;;;12.02;10.82;;;;;;;;;;5083143;28;20052;-63
2024/03/06 11:20:17;;;;;;;11.40;10.30;;;;;;;;;;5080802;28;20056;-62
2024/03/06 11:23:08;;;;;;;13.23;12.02;;;;;;;;;;5083328;28;20048;-63
2024/03/06 11:25:53;;;;;;;12.95;11.65;;;;;;;;;;5081838;28;20052;-62
2024/03/06 11:28:20;;;;;;;13.32;12.00;;;;;;;;;;5081918;28;20061;-63
2024/03/06 11:30:49;;;;;;;13.38;12.18;;;;;;;;;;5086977;28;20527;-63
2024/03/06 11:33:17;;;;;;;13.00;11.70;;;;;;;;;;5080656;28;20504;-62
2024/03/06 11:35:48;;;;;;;13.63;12.32;;;;;;;;;;5081676;28;20547;-62
2024/03/06 11:38:17;;;;;;;13.13;11.82;;;;;;;;;;5087745;28;20044;-63
2024/03/06 11:40:44;;;;;;;13.32;12.02;;;;;;;;;;5089019;28;20048;-62
2024/03/06 11:43:23;;;;;;;14.05;12.75;;;;;;;;;;5087792;28;20040;-62
2024/03/06 11:45:51;;;;;;;14.30;13.10;;;;;;;;;;5084458;28;20055;-61
2024/03/06 11:48:21;;;;;;;15.57;14.18;;;;;;;;;;5084826;28;20151;-60
2024/03/06 11:50:48;;;;;;;16.13;14.63;;;;;;;;;;5085586;28;20059;-63
2024/03/06 11:53:15;;;;;;;17.30;15.70;;;;;;;;;;5083440;28;20488;-63
2024/03/06 11:55:42;;;;;;;17.27;15.77;;;;;;;;;;5083944;28;20400;-60
2024/03/06 11:58:11;;;;;;;16.42;15.02;;;;;;;;;;5083750;28;20044;-62
2024/03/06 12:00:38;;;;;;;16.80;15.35;;;;;;;;;;5086937;28;20070;-62
2024/03/06 12:03:07;;;;;;;17.17;15.70;;;;;;;;;;5090493;28;20059;-62
2024/03/06 12:05:34;;;;;;;16.45;14.98;;;;;;;;;;5089434;28;20056;-62
2024/03/06 12:08:00;;;;;;;17.05;15.55;;;;;;;;;;5092107;28;20057;-62
2024/03/06 12:10:27;;;;;;;16.15;14.77;;;;;;;;;;5092001;28;20063;-62
2024/03/06 12:12:54;;;;;;;15.85;14.45;;;;;;;;;;5091943;28;20055;-63
2024/03/06 12:15:20;;;;;;;14.50;13.20;;;;;;;;;;5088452;28;20047;-62
2024/03/06 12:17:48;;;;;;;13.73;12.52;;;;;;;;;;5091841;28;20047;-62
2024/03/06 12:20:17;;;;;;;13.88;12.57;;;;;;;;;;5089696;28;20052;-63
2024/03/06 12:22:44;;;;;;;12.65;11.55;;;;;;;;;;5088502;28;20048;-62
2024/03/06 12:25:11;;;;;;;13.73;12.43;;;;;;;;;;5087957;28;20424;-63
2024/03/06 12:27:38;;;;;;;13.18;12.07;;;;;;;;;;5089756;28;20052;-63
2024/03/06 12:30:09;;;;;;;13.05;11.88;;;;;;;;;;5090325;28;20052;-62
2024/03/06 12:32:36;;;;;;;14.52;13.32;;;;;;;;;;5090292;28;20052;-62
2024/03/06 12:35:02;;;;;;;16.08;14.57;;;;;;;;;;5090341;28;20048;-63
2024/03/06 12:37:32;;;;;;;16.00;14.50;;;;;;;;;;5091298;28;20126;-62
2024/03/06 12:39:58;;;;;;;15.75;14.35;;;;;;;;;;5090577;28;20062;-62
2024/03/06 12:42:25;;;;;;;12.85;11.75;;;;;;;;;;5091706;28;20134;-62
2024/03/06 12:44:52;;;;;;;14.15;12.82;;;;;;;;;;5091497;28;20480;-62
2024/03/06 12:47:19;;;;;;;16.83;15.27;;;;;;;;;;5085692;28;20055;-62
2024/03/06 12:49:46;;;;;;;16.30;14.90;;;;;;;;;;5082807;28;20424;-61
2024/03/06 12:52:13;;;;;;;18.45;16.75;;;;;;;;;;5084311;28;20408;-62
2024/03/06 12:54:41;;;;;;;18.83;17.05;;;;;;;;;;5087574;28;20059;-62
2024/03/06 12:57:08;;;;;;;19.42;17.63;;;;;;;;;;5090672;28;20044;-62
2024/03/06 12:59:35;;;;;;;19.55;17.63;;;;;;;;;;5090519;28;20079;-62
2024/03/06 13:02:01;;;;;;;20.92;18.90;;;;;;;;;;5088258;28;20056;-62
2024/03/06 13:04:28;;;;;;;19.30;17.60;;;;;;;;;;5088487;28;20064;-63
2024/03/06 13:06:55;;;;;;;19.92;18.23;;;;;;;;;;5090433;28;20047;-61
2024/03/06 13:09:23;;;;;;;19.95;18.20;;;;;;;;;;5089404;28;20373;-63
2024/03/06 13:11:51;;;;;;;19.80;17.90;;;;;;;;;;5090059;28;20062;-61
2024/03/06 13:14:18;;;;;;;19.70;17.70;;;;;;;;;;5089085;28;20477;-61
2024/03/06 13:16:45;;;;;;;17.98;16.15;;;;;;;;;;5088346;28;20055;-60
2024/03/06 13:19:14;;;;;;;15.63;14.05;;;;;;;;;;5086406;28;20438;-62
2024/03/06 13:21:40;;;;;;;16.73;15.32;;;;;;;;;;5090452;28;20063;-60
2024/03/06 13:24:07;;;;;;;17.00;15.40;;;;;;;;;;5089471;28;20063;-61
2024/03/06 13:26:35;;;;;;;17.33;15.82;;;;;;;;;;5090853;28;20504;-62
2024/03/06 13:29:03;;;;;;;17.85;16.25;;;;;;;;;;5085003;28;20041;-61
2024/03/06 13:31:33;;;;;;;16.90;15.30;;;;;;;;;;5090273;28;20417;-60
2024/03/06 13:34:00;;;;;;;15.43;13.82;;;;;;;;;;5089737;28;20377;-60
2024/03/06 13:36:27;;;;;;;18.67;16.77;;;;;;;;;;5089248;28;20051;-60
2024/03/06 13:38:54;;;;;;;22.10;20.08;;;;;;;;;;5089607;28;20048;-62
2024/03/06 13:41:21;;;;;;;24.20;22.00;;;;;;;;;;5087648;28;20056;-62
2024/03/06 13:43:48;;;;;;;25.08;22.63;;;;;;;;;;5089354;28;20060;-62
2024/03/06 13:46:16;;;;;;;24.90;22.50;;;;;;;;;;5089364;28;20048;-60
2024/03/06 13:48:42;;;;;;;24.48;22.27;;;;;;;;;;5089842;28;20311;-60
2024/03/06 13:51:09;;;;;;;26.98;24.48;;;;;;;;;;5089668;28;20417;-61
2024/03/06 13:53:36;;;;;;;26.58;23.98;;;;;;;;;;5089685;28;20063;-60
2024/03/06 13:56:03;;;;;;;26.58;24.17;;;;;;;;;;5089042;28;20044;-61
2024/03/06 13:58:30;;;;;;;27.88;25.30;;;;;;;;;;5088768;28;20438;-62
2024/03/06 14:00:57;;;;;;;29.33;26.33;;;;;;;;;;5081095;28;20411;-61
2024/03/06 14:03:25;;;;;;;27.45;24.63;;;;;;;;;;5085628;28;20056;-61
2024/03/06 14:05:52;;;;;;;26.83;24.02;;;;;;;;;;5089695;28;20063;-61
2024/03/06 14:08:19;;;;;;;27.80;24.88;;;;;;;;;;5088898;28;20420;-60
2024/03/06 14:10:46;;;;;;;26.30;23.52;;;;;;;;;;5087263;28;20048;-60
2024/03/06 14:13:13;;;;;;;27.00;24.20;;;;;;;;;;5086745;28;20090;-61
2024/03/06 14:15:39;;;;;;;25.48;22.98;;;;;;;;;;5085312;28;20075;-60
2024/03/06 14:18:06;;;;;;;25.33;22.80;;;;;;;;;;5085845;28;20067;-61